sensor_id;sensor_type;location;lat;lon;timestamp;pressure;altitude;pressure_sealevel;temperature;humidity
70027;BME280;57506;50.092;15.804;2023-06-14T00:01:02;98945.25;;;8.44;100.00
70027;BME280;57506;50.092;15.804;2023-06-14T00:03:28;98949.84;;;8.50;100.00
70027;BME280;57506;50.092;15.804;2023-06-14T00:05:54;98941.31;;;8.61;100.00
70027;BME280;57506;50.092;15.804;2023-06-14T00:08:20;98936.03;;;8.68;100.00
70027;BME280;57506;50.092;15.804;2023-06-14T00:10:48;98947.22;;;8.86;100.00
70027;BME280;57506;50.092;15.804;2023-06-14T00:13:14;98947.47;;;8.91;100.00
70027;BME280;57506;50.092;15.804;2023-06-14T00:15:39;98939.66;;;8.96;100.00
70027;BME280;57506;50.092;15.804;2023-06-14T00:18:06;98947.91;;;8.95;100.00
70027;BME280;57506;50.092;15.804;2023-06-14T00:20:32;98945.81;;;8.90;100.00
70027;BME280;57506;50.092;15.804;2023-06-14T00:23:01;98943.03;;;8.84;100.00
70027;BME280;57506;50.092;15.804;2023-06-14T00:25:27;98947.31;;;8.78;100.00
70027;BME280;57506;50.092;15.804;2023-06-14T00:27:54;98942.16;;;8.62;100.00
70027;BME280;57506;50.092;15.804;2023-06-14T00:30:20;98944.59;;;8.57;100.00
70027;BME280;57506;50.092;15.804;2023-06-14T00:32:46;98946.88;;;8.45;100.00
70027;BME280;57506;50.092;15.804;2023-06-14T00:35:12;98948.00;;;8.36;100.00
70027;BME280;57506;50.092;15.804;2023-06-14T00:37:38;98945.00;;;8.31;100.00
70027;BME280;57506;50.092;15.804;2023-06-14T00:40:04;98947.34;;;8.34;100.00
70027;BME280;57506;50.092;15.804;2023-06-14T00:42:31;98944.47;;;8.21;100.00
70027;BME280;57506;50.092;15.804;2023-06-14T00:44:57;98938.06;;;8.07;100.00
70027;BME280;57506;50.092;15.804;2023-06-14T00:47:23;98953.34;;;8.06;100.00
70027;BME280;57506;50.092;15.804;2023-06-14T00:49:49;98957.22;;;8.04;100.00
70027;BME280;57506;50.092;15.804;2023-06-14T00:52:17;98953.16;;;8.08;100.00
70027;BME280;57506;50.092;15.804;2023-06-14T00:54:43;98956.56;;;8.02;100.00
70027;BME280;57506;50.092;15.804;2023-06-14T00:57:12;98958.06;;;8.04;100.00
70027;BME280;57506;50.092;15.804;2023-06-14T00:59:48;98950.66;;;8.21;100.00
70027;BME280;57506;50.092;15.804;2023-06-14T01:02:14;98956.41;;;8.48;100.00
70027;BME280;57506;50.092;15.804;2023-06-14T01:04:42;98952.25;;;8.45;100.00
70027;BME280;57506;50.092;15.804;2023-06-14T01:13:23;98951.63;;;8.43;100.00
70027;BME280;57506;50.092;15.804;2023-06-14T01:15:52;98956.25;;;8.34;100.00
70027;BME280;57506;50.092;15.804;2023-06-14T01:18:19;98952.06;;;8.32;100.00
70027;BME280;57506;50.092;15.804;2023-06-14T01:20:46;98956.88;;;8.22;100.00
70027;BME280;57506;50.092;15.804;2023-06-14T01:23:16;98955.56;;;8.18;100.00
70027;BME280;57506;50.092;15.804;2023-06-14T01:25:42;98955.28;;;8.13;100.00
70027;BME280;57506;50.092;15.804;2023-06-14T01:28:10;98957.13;;;8.12;100.00
70027;BME280;57506;50.092;15.804;2023-06-14T01:30:40;98955.84;;;8.08;100.00
70027;BME280;57506;50.092;15.804;2023-06-14T01:33:12;98959.06;;;8.03;100.00
70027;BME280;57506;50.092;15.804;2023-06-14T01:35:39;98943.25;;;7.94;100.00
70027;BME280;57506;50.092;15.804;2023-06-14T01:38:06;98947.13;;;7.91;100.00
70027;BME280;57506;50.092;15.804;2023-06-14T01:40:34;98954.53;;;7.89;100.00
70027;BME280;57506;50.092;15.804;2023-06-14T01:43:01;98945.63;;;7.89;100.00
70027;BME280;57506;50.092;15.804;2023-06-14T01:45:29;98950.16;;;7.88;100.00
70027;BME280;57506;50.092;15.804;2023-06-14T01:47:55;98951.13;;;7.95;100.00
70027;BME280;57506;50.092;15.804;2023-06-14T01:50:21;98958.06;;;8.04;100.00
70027;BME280;57506;50.092;15.804;2023-06-14T01:52:46;98955.00;;;8.07;100.00
70027;BME280;57506;50.092;15.804;2023-06-14T01:55:12;98962.31;;;8.14;100.00
70027;BME280;57506;50.092;15.804;2023-06-14T01:57:37;98957.22;;;8.19;100.00
70027;BME280;57506;50.092;15.804;2023-06-14T02:00:04;98969.28;;;8.23;100.00
70027;BME280;57506;50.092;15.804;2023-06-14T02:02:33;98970.00;;;8.17;100.00
70027;BME280;57506;50.092;15.804;2023-06-14T02:04:59;98966.59;;;8.08;100.00
70027;BME280;57506;50.092;15.804;2023-06-14T02:07:24;98974.91;;;8.13;100.00
70027;BME280;57506;50.092;15.804;2023-06-14T02:09:50;98966.84;;;8.13;100.00
70027;BME280;57506;50.092;15.804;2023-06-14T02:12:15;98968.69;;;8.13;100.00
70027;BME280;57506;50.092;15.804;2023-06-14T02:14:41;98968.78;;;8.04;100.00
70027;BME280;57506;50.092;15.804;2023-06-14T02:17:07;98962.75;;;7.88;100.00
70027;BME280;57506;50.092;15.804;2023-06-14T02:19:33;98963.28;;;7.83;100.00
70027;BME280;57506;50.092;15.804;2023-06-14T02:21:58;98967.38;;;7.79;100.00
70027;BME280;57506;50.092;15.804;2023-06-14T02:24:24;98963.06;;;7.70;100.00
70027;BME280;57506;50.092;15.804;2023-06-14T02:26:50;98959.94;;;7.81;100.00
70027;BME280;57506;50.092;15.804;2023-06-14T02:29:16;98970.41;;;7.76;100.00
70027;BME280;57506;50.092;15.804;2023-06-14T02:31:41;98961.22;;;7.70;100.00
70027;BME280;57506;50.092;15.804;2023-06-14T02:34:07;98954.38;;;7.68;100.00
70027;BME280;57506;50.092;15.804;2023-06-14T02:36:36;98961.09;;;7.64;100.00
70027;BME280;57506;50.092;15.804;2023-06-14T02:39:09;98965.84;;;7.62;100.00
70027;BME280;57506;50.092;15.804;2023-06-14T02:41:35;98960.09;;;7.65;100.00
70027;BME280;57506;50.092;15.804;2023-06-14T02:44:01;98962.28;;;7.84;100.00
70027;BME280;57506;50.092;15.804;2023-06-14T02:46:27;98951.47;;;7.92;100.00
70027;BME280;57506;50.092;15.804;2023-06-14T02:48:52;98969.44;;;8.06;100.00
70027;BME280;57506;50.092;15.804;2023-06-14T02:51:18;98976.13;;;8.11;100.00
70027;BME280;57506;50.092;15.804;2023-06-14T02:53:43;98967.25;;;8.10;100.00
70027;BME280;57506;50.092;15.804;2023-06-14T02:56:09;98966.22;;;8.11;100.00
70027;BME280;57506;50.092;15.804;2023-06-14T02:58:38;98962.06;;;8.08;100.00
70027;BME280;57506;50.092;15.804;2023-06-14T03:01:05;98971.19;;;8.14;100.00
70027;BME280;57506;50.092;15.804;2023-06-14T03:03:33;98968.16;;;8.17;100.00
70027;BME280;57506;50.092;15.804;2023-06-14T03:05:59;98973.03;;;8.14;100.00
70027;BME280;57506;50.092;15.804;2023-06-14T03:08:30;98966.94;;;8.20;100.00
70027;BME280;57506;50.092;15.804;2023-06-14T03:10:58;98972.97;;;8.22;100.00
70027;BME280;57506;50.092;15.804;2023-06-14T03:13:24;98962.97;;;8.16;100.00
70027;BME280;57506;50.092;15.804;2023-06-14T03:15:49;98965.00;;;8.14;100.00
70027;BME280;57506;50.092;15.804;2023-06-14T03:18:16;98954.34;;;8.05;100.00
70027;BME280;57506;50.092;15.804;2023-06-14T03:20:42;98963.91;;;8.08;100.00
70027;BME280;57506;50.092;15.804;2023-06-14T03:23:08;98968.72;;;8.27;100.00
70027;BME280;57506;50.092;15.804;2023-06-14T03:25:34;98969.66;;;8.49;100.00
70027;BME280;57506;50.092;15.804;2023-06-14T03:28:06;98971.06;;;8.60;100.00
70027;BME280;57506;50.092;15.804;2023-06-14T03:30:31;98964.56;;;8.69;100.00
70027;BME280;57506;50.092;15.804;2023-06-14T03:32:57;98967.97;;;8.77;100.00
70027;BME280;57506;50.092;15.804;2023-06-14T03:35:26;98972.41;;;8.85;100.00
70027;BME280;57506;50.092;15.804;2023-06-14T03:37:52;98976.22;;;8.91;100.00
70027;BME280;57506;50.092;15.804;2023-06-14T03:40:18;98971.34;;;9.01;100.00
70027;BME280;57506;50.092;15.804;2023-06-14T03:42:45;98977.72;;;9.15;100.00
70027;BME280;57506;50.092;15.804;2023-06-14T03:45:11;98977.44;;;9.24;100.00
70027;BME280;57506;50.092;15.804;2023-06-14T03:47:36;98980.63;;;9.34;100.00
70027;BME280;57506;50.092;15.804;2023-06-14T03:50:03;98975.06;;;9.57;100.00
70027;BME280;57506;50.092;15.804;2023-06-14T03:52:29;98982.03;;;9.73;100.00
70027;BME280;57506;50.092;15.804;2023-06-14T03:54:55;98980.75;;;9.90;100.00
70027;BME280;57506;50.092;15.804;2023-06-14T03:57:21;98976.09;;;10.05;100.00
70027;BME280;57506;50.092;15.804;2023-06-14T03:59:47;98981.81;;;10.24;100.00
70027;BME280;57506;50.092;15.804;2023-06-14T04:02:12;98977.78;;;10.34;100.00
70027;BME280;57506;50.092;15.804;2023-06-14T04:04:44;98982.84;;;10.50;100.00
70027;BME280;57506;50.092;15.804;2023-06-14T04:07:13;98987.47;;;10.63;100.00
70027;BME280;57506;50.092;15.804;2023-06-14T04:09:40;98987.94;;;10.73;100.00
70027;BME280;57506;50.092;15.804;2023-06-14T04:12:06;98989.63;;;10.81;100.00
70027;BME280;57506;50.092;15.804;2023-06-14T04:14:34;98991.75;;;10.92;100.00
70027;BME280;57506;50.092;15.804;2023-06-14T04:17:00;98994.28;;;11.07;100.00
70027;BME280;57506;50.092;15.804;2023-06-14T04:19:26;98997.66;;;11.22;100.00
70027;BME280;57506;50.092;15.804;2023-06-14T04:21:51;99000.63;;;11.40;100.00
70027;BME280;57506;50.092;15.804;2023-06-14T04:24:17;99001.47;;;11.54;100.00
70027;BME280;57506;50.092;15.804;2023-06-14T04:26:44;98999.03;;;11.72;100.00
70027;BME280;57506;50.092;15.804;2023-06-14T04:29:13;98997.00;;;11.81;100.00
70027;BME280;57506;50.092;15.804;2023-06-14T04:31:44;98995.13;;;11.88;100.00
70027;BME280;57506;50.092;15.804;2023-06-14T04:34:11;99006.78;;;11.95;100.00
70027;BME280;57506;50.092;15.804;2023-06-14T04:36:44;99008.41;;;12.03;100.00
70027;BME280;57506;50.092;15.804;2023-06-14T04:39:22;99011.13;;;12.09;100.00
70027;BME280;57506;50.092;15.804;2023-06-14T04:41:48;99014.88;;;12.28;100.00
70027;BME280;57506;50.092;15.804;2023-06-14T04:44:18;99010.91;;;12.44;100.00
70027;BME280;57506;50.092;15.804;2023-06-14T04:46:45;99015.47;;;12.50;100.00
70027;BME280;57506;50.092;15.804;2023-06-14T04:49:17;99022.75;;;12.49;100.00
70027;BME280;57506;50.092;15.804;2023-06-14T04:51:44;99023.75;;;12.55;100.00
70027;BME280;57506;50.092;15.804;2023-06-14T04:54:11;99020.63;;;12.78;100.00
70027;BME280;57506;50.092;15.804;2023-06-14T04:56:40;99025.81;;;12.79;100.00
70027;BME280;57506;50.092;15.804;2023-06-14T04:59:05;99025.34;;;12.89;100.00
70027;BME280;57506;50.092;15.804;2023-06-14T05:01:32;99022.63;;;12.95;100.00
70027;BME280;57506;50.092;15.804;2023-06-14T05:03:58;99025.09;;;13.04;100.00
70027;BME280;57506;50.092;15.804;2023-06-14T05:06:24;99027.34;;;13.26;100.00
70027;BME280;57506;50.092;15.804;2023-06-14T05:08:49;99029.13;;;13.39;100.00
70027;BME280;57506;50.092;15.804;2023-06-14T05:11:15;99016.56;;;13.58;100.00
70027;BME280;57506;50.092;15.804;2023-06-14T05:13:42;99028.53;;;13.75;100.00
70027;BME280;57506;50.092;15.804;2023-06-14T05:16:08;99033.13;;;13.75;100.00
70027;BME280;57506;50.092;15.804;2023-06-14T05:18:34;99026.81;;;13.81;99.53
70027;BME280;57506;50.092;15.804;2023-06-14T05:21:01;99026.66;;;14.00;97.41
70027;BME280;57506;50.092;15.804;2023-06-14T05:23:27;99036.25;;;14.03;95.77
70027;BME280;57506;50.092;15.804;2023-06-14T05:25:52;99037.47;;;14.32;95.74
70027;BME280;57506;50.092;15.804;2023-06-14T05:28:18;99034.72;;;14.39;94.37
70027;BME280;57506;50.092;15.804;2023-06-14T05:30:44;99032.00;;;14.63;94.28
70027;BME280;57506;50.092;15.804;2023-06-14T05:33:09;99023.81;;;14.88;92.41
70027;BME280;57506;50.092;15.804;2023-06-14T05:35:35;99024.41;;;14.72;92.88
70027;BME280;57506;50.092;15.804;2023-06-14T05:38:00;99027.13;;;14.90;92.30
70027;BME280;57506;50.092;15.804;2023-06-14T05:40:26;99031.50;;;15.10;88.45
70027;BME280;57506;50.092;15.804;2023-06-14T05:42:52;99036.56;;;15.24;88.91
70027;BME280;57506;50.092;15.804;2023-06-14T05:45:17;99041.13;;;15.42;88.31
70027;BME280;57506;50.092;15.804;2023-06-14T05:47:43;99041.34;;;15.40;87.37
70027;BME280;57506;50.092;15.804;2023-06-14T05:50:09;99041.69;;;15.44;86.65
70027;BME280;57506;50.092;15.804;2023-06-14T05:52:35;99036.97;;;15.39;85.34
70027;BME280;57506;50.092;15.804;2023-06-14T05:55:04;99047.06;;;15.51;87.68
70027;BME280;57506;50.092;15.804;2023-06-14T05:57:30;99045.19;;;15.51;87.70
70027;BME280;57506;50.092;15.804;2023-06-14T05:59:55;99042.44;;;15.69;86.24
70027;BME280;57506;50.092;15.804;2023-06-14T06:02:21;99053.50;;;15.86;83.53
70027;BME280;57506;50.092;15.804;2023-06-14T06:04:47;99052.53;;;15.81;83.52
70027;BME280;57506;50.092;15.804;2023-06-14T06:07:12;99054.53;;;15.73;82.44
70027;BME280;57506;50.092;15.804;2023-06-14T06:09:38;99056.03;;;15.69;82.43
70027;BME280;57506;50.092;15.804;2023-06-14T06:12:06;99057.56;;;15.65;82.55
70027;BME280;57506;50.092;15.804;2023-06-14T06:14:32;99059.47;;;15.77;81.64
70027;BME280;57506;50.092;15.804;2023-06-14T06:16:58;99058.31;;;15.72;80.71
70027;BME280;57506;50.092;15.804;2023-06-14T06:19:24;99060.47;;;15.94;81.54
70027;BME280;57506;50.092;15.804;2023-06-14T06:21:49;99066.91;;;16.11;79.12
70027;BME280;57506;50.092;15.804;2023-06-14T06:24:15;99058.75;;;16.11;77.07
70027;BME280;57506;50.092;15.804;2023-06-14T06:26:40;99056.19;;;16.16;77.65
70027;BME280;57506;50.092;15.804;2023-06-14T06:29:06;99067.69;;;16.41;81.72
70027;BME280;57506;50.092;15.804;2023-06-14T06:31:32;99063.72;;;16.79;77.67
70027;BME280;57506;50.092;15.804;2023-06-14T06:33:57;99064.63;;;17.08;76.56
70027;BME280;57506;50.092;15.804;2023-06-14T06:36:24;99061.41;;;17.34;75.29
70027;BME280;57506;50.092;15.804;2023-06-14T06:38:50;99063.50;;;17.44;74.06
70027;BME280;57506;50.092;15.804;2023-06-14T06:41:15;99067.41;;;17.48;72.10
70027;BME280;57506;50.092;15.804;2023-06-14T06:43:41;99071.13;;;17.30;72.08
70027;BME280;57506;50.092;15.804;2023-06-14T06:46:07;99069.63;;;16.99;71.25
70027;BME280;57506;50.092;15.804;2023-06-14T06:48:33;99067.84;;;16.93;74.44
70027;BME280;57506;50.092;15.804;2023-06-14T06:50:58;99068.50;;;17.35;76.83
70027;BME280;57506;50.092;15.804;2023-06-14T06:53:24;99079.72;;;17.39;72.04
70027;BME280;57506;50.092;15.804;2023-06-14T06:55:49;99079.00;;;17.43;71.34
70027;BME280;57506;50.092;15.804;2023-06-14T06:58:15;99087.66;;;17.40;70.47
70027;BME280;57506;50.092;15.804;2023-06-14T07:00:40;99080.44;;;17.46;66.30
70027;BME280;57506;50.092;15.804;2023-06-14T07:03:06;99080.94;;;17.83;68.78
70027;BME280;57506;50.092;15.804;2023-06-14T07:05:32;99087.50;;;17.99;69.19
70027;BME280;57506;50.092;15.804;2023-06-14T07:07:58;99089.75;;;18.02;66.65
70027;BME280;57506;50.092;15.804;2023-06-14T07:10:24;99096.66;;;17.93;67.58
70027;BME280;57506;50.092;15.804;2023-06-14T07:12:50;99094.22;;;17.79;66.50
70027;BME280;57506;50.092;15.804;2023-06-14T07:15:16;99091.53;;;17.96;65.90
70027;BME280;57506;50.092;15.804;2023-06-14T07:17:42;99096.69;;;18.09;62.47
70027;BME280;57506;50.092;15.804;2023-06-14T07:20:08;99095.38;;;18.12;62.70
70027;BME280;57506;50.092;15.804;2023-06-14T07:22:41;99092.25;;;18.20;62.94
70027;BME280;57506;50.092;15.804;2023-06-14T07:25:10;99100.78;;;18.40;63.06
70027;BME280;57506;50.092;15.804;2023-06-14T07:27:42;99092.50;;;18.64;63.41
70027;BME280;57506;50.092;15.804;2023-06-14T07:30:09;99089.50;;;18.65;63.03
70027;BME280;57506;50.092;15.804;2023-06-14T07:32:34;99106.28;;;18.74;61.32
70027;BME280;57506;50.092;15.804;2023-06-14T07:35:00;99105.31;;;18.80;62.87
70027;BME280;57506;50.092;15.804;2023-06-14T07:37:26;99105.19;;;19.08;61.33
70027;BME280;57506;50.092;15.804;2023-06-14T07:39:52;99108.31;;;19.00;60.06
70027;BME280;57506;50.092;15.804;2023-06-14T07:42:17;99105.72;;;18.72;60.52
70027;BME280;57506;50.092;15.804;2023-06-14T07:44:43;99102.72;;;18.90;61.31
70027;BME280;57506;50.092;15.804;2023-06-14T07:47:08;99107.69;;;18.93;61.86
70027;BME280;57506;50.092;15.804;2023-06-14T07:49:34;99103.69;;;19.01;61.95
70027;BME280;57506;50.092;15.804;2023-06-14T07:52:00;99104.81;;;19.21;61.75
70027;BME280;57506;50.092;15.804;2023-06-14T07:54:25;99106.19;;;18.69;59.28
70027;BME280;57506;50.092;15.804;2023-06-14T07:56:52;99103.56;;;18.74;59.56
70027;BME280;57506;50.092;15.804;2023-06-14T07:59:18;99109.59;;;18.76;60.22
70027;BME280;57506;50.092;15.804;2023-06-14T08:01:43;99110.31;;;19.05;64.41
70027;BME280;57506;50.092;15.804;2023-06-14T08:04:14;99095.03;;;19.26;62.30
70027;BME280;57506;50.092;15.804;2023-06-14T08:06:41;99109.19;;;19.22;57.84
70027;BME280;57506;50.092;15.804;2023-06-14T08:09:10;99104.44;;;19.35;59.28
70027;BME280;57506;50.092;15.804;2023-06-14T08:11:36;99111.81;;;18.96;58.78
70027;BME280;57506;50.092;15.804;2023-06-14T08:14:01;99125.03;;;19.20;60.33
70027;BME280;57506;50.092;15.804;2023-06-14T08:16:27;99117.84;;;19.53;58.20
70027;BME280;57506;50.092;15.804;2023-06-14T08:18:52;99117.69;;;19.43;56.50
70027;BME280;57506;50.092;15.804;2023-06-14T08:21:18;99115.09;;;19.53;54.45
70027;BME280;57506;50.092;15.804;2023-06-14T08:23:43;99116.16;;;19.30;55.18
70027;BME280;57506;50.092;15.804;2023-06-14T08:26:09;99099.44;;;19.48;56.31
70027;BME280;57506;50.092;15.804;2023-06-14T08:28:36;99109.06;;;19.95;55.16
70027;BME280;57506;50.092;15.804;2023-06-14T08:31:01;99114.44;;;20.11;55.62
70027;BME280;57506;50.092;15.804;2023-06-14T08:33:27;99119.19;;;19.94;52.58
70027;BME280;57506;50.092;15.804;2023-06-14T08:35:52;99121.28;;;20.68;54.12
70027;BME280;57506;50.092;15.804;2023-06-14T08:38:18;99119.38;;;20.68;54.06
70027;BME280;57506;50.092;15.804;2023-06-14T08:40:50;99121.97;;;20.85;52.53
70027;BME280;57506;50.092;15.804;2023-06-14T08:43:18;99118.53;;;20.68;49.64
70027;BME280;57506;50.092;15.804;2023-06-14T08:45:46;99119.56;;;20.56;50.80
70027;BME280;57506;50.092;15.804;2023-06-14T08:48:12;99112.13;;;20.25;50.95
70027;BME280;57506;50.092;15.804;2023-06-14T08:50:43;99112.44;;;20.29;51.91
70027;BME280;57506;50.092;15.804;2023-06-14T08:53:13;99099.50;;;19.97;53.11
70027;BME280;57506;50.092;15.804;2023-06-14T08:55:44;99108.75;;;19.91;52.07
70027;BME280;57506;50.092;15.804;2023-06-14T08:58:10;99112.06;;;19.71;53.44
70027;BME280;57506;50.092;15.804;2023-06-14T09:00:39;99109.41;;;20.03;55.04
70027;BME280;57506;50.092;15.804;2023-06-14T09:03:07;99115.41;;;20.54;54.79
70027;BME280;57506;50.092;15.804;2023-06-14T09:05:39;99106.97;;;20.92;53.99
70027;BME280;57506;50.092;15.804;2023-06-14T09:08:05;99103.78;;;21.06;53.40
70027;BME280;57506;50.092;15.804;2023-06-14T09:10:31;99108.13;;;21.39;52.38
70027;BME280;57506;50.092;15.804;2023-06-14T09:13:02;99104.97;;;21.77;53.69
70027;BME280;57506;50.092;15.804;2023-06-14T09:15:29;99110.59;;;22.03;46.96
70027;BME280;57506;50.092;15.804;2023-06-14T09:17:56;99108.19;;;22.37;49.19
70027;BME280;57506;50.092;15.804;2023-06-14T09:20:24;99118.84;;;22.18;45.91
70027;BME280;57506;50.092;15.804;2023-06-14T09:22:50;99111.75;;;22.32;47.92
70027;BME280;57506;50.092;15.804;2023-06-14T09:25:16;99099.06;;;22.11;46.89
70027;BME280;57506;50.092;15.804;2023-06-14T09:27:43;99111.41;;;22.08;46.33
70027;BME280;57506;50.092;15.804;2023-06-14T09:30:11;99107.06;;;22.43;46.87
70027;BME280;57506;50.092;15.804;2023-06-14T09:32:38;99113.63;;;22.16;47.77
70027;BME280;57506;50.092;15.804;2023-06-14T09:35:06;99111.16;;;22.05;44.38
70027;BME280;57506;50.092;15.804;2023-06-14T09:37:32;99104.03;;;22.29;46.54
70027;BME280;57506;50.092;15.804;2023-06-14T09:39:58;99107.38;;;22.46;45.76
70027;BME280;57506;50.092;15.804;2023-06-14T09:42:24;99106.81;;;22.59;49.14
70027;BME280;57506;50.092;15.804;2023-06-14T09:44:55;99099.66;;;22.43;46.17
70027;BME280;57506;50.092;15.804;2023-06-14T09:47:22;99095.84;;;23.00;43.76
70027;BME280;57506;50.092;15.804;2023-06-14T09:49:49;99098.06;;;22.78;44.90
70027;BME280;57506;50.092;15.804;2023-06-14T09:52:17;99095.28;;;22.52;41.94
70027;BME280;57506;50.092;15.804;2023-06-14T09:54:44;99102.78;;;21.74;44.75
70027;BME280;57506;50.092;15.804;2023-06-14T09:57:16;99105.84;;;21.30;46.84
70027;BME280;57506;50.092;15.804;2023-06-14T09:59:46;99102.56;;;20.27;48.78
70027;BME280;57506;50.092;15.804;2023-06-14T10:02:24;99101.16;;;20.25;49.51
70027;BME280;57506;50.092;15.804;2023-06-14T10:04:58;99104.34;;;20.71;48.87
70027;BME280;57506;50.092;15.804;2023-06-14T10:07:26;99109.28;;;20.74;48.14
70027;BME280;57506;50.092;15.804;2023-06-14T10:09:55;99098.03;;;20.38;47.45
70027;BME280;57506;50.092;15.804;2023-06-14T10:12:21;99108.72;;;20.72;49.22
70027;BME280;57506;50.092;15.804;2023-06-14T10:14:51;99102.34;;;20.61;48.48
70027;BME280;57506;50.092;15.804;2023-06-14T10:17:45;99105.09;;;20.61;47.24
70027;BME280;57506;50.092;15.804;2023-06-14T10:22:51;99088.06;;;20.96;49.81
70027;BME280;57506;50.092;15.804;2023-06-14T10:25:30;99093.47;;;20.49;51.88
70027;BME280;57506;50.092;15.804;2023-06-14T10:28:22;99100.84;;;20.21;53.53
70027;BME280;57506;50.092;15.804;2023-06-14T10:31:09;99106.19;;;20.60;52.84
70027;BME280;57506;50.092;15.804;2023-06-14T10:33:56;99099.69;;;21.13;52.82
70027;BME280;57506;50.092;15.804;2023-06-14T10:38:59;99096.84;;;20.98;51.54
70027;BME280;57506;50.092;15.804;2023-06-14T10:41:28;99103.13;;;21.30;51.23
70027;BME280;57506;50.092;15.804;2023-06-14T10:46:48;99097.25;;;21.59;51.35
70027;BME280;57506;50.092;15.804;2023-06-14T10:49:22;99092.50;;;22.17;51.06
70027;BME280;57506;50.092;15.804;2023-06-14T10:52:02;99088.44;;;21.52;49.47
70027;BME280;57506;50.092;15.804;2023-06-14T10:54:28;99095.44;;;21.90;49.10
70027;BME280;57506;50.092;15.804;2023-06-14T10:56:54;99092.25;;;22.44;49.53
70027;BME280;57506;50.092;15.804;2023-06-14T10:59:20;99093.34;;;22.48;47.89
70027;BME280;57506;50.092;15.804;2023-06-14T11:04:47;99080.75;;;22.52;45.01
70027;BME280;57506;50.092;15.804;2023-06-14T11:12:47;99089.22;;;22.45;44.22
70027;BME280;57506;50.092;15.804;2023-06-14T11:15:13;99082.63;;;22.41;45.47
70027;BME280;57506;50.092;15.804;2023-06-14T11:17:39;99089.94;;;21.90;46.74
70027;BME280;57506;50.092;15.804;2023-06-14T11:20:11;99087.91;;;21.60;47.92
70027;BME280;57506;50.092;15.804;2023-06-14T11:22:44;99084.91;;;21.67;47.97
70027;BME280;57506;50.092;15.804;2023-06-14T11:25:13;99088.84;;;21.28;47.82
70027;BME280;57506;50.092;15.804;2023-06-14T11:27:42;99100.09;;;20.90;49.57
70027;BME280;57506;50.092;15.804;2023-06-14T11:30:08;99108.91;;;20.60;49.52
70027;BME280;57506;50.092;15.804;2023-06-14T11:32:35;99103.59;;;20.48;49.49
70027;BME280;57506;50.092;15.804;2023-06-14T11:35:02;99097.97;;;20.65;47.98
70027;BME280;57506;50.092;15.804;2023-06-14T11:37:28;99110.50;;;20.56;49.16
70027;BME280;57506;50.092;15.804;2023-06-14T11:40:01;99085.38;;;21.01;50.12
70027;BME280;57506;50.092;15.804;2023-06-14T11:42:29;99083.44;;;21.44;49.24
70027;BME280;57506;50.092;15.804;2023-06-14T11:44:55;99089.25;;;21.05;49.45
70027;BME280;57506;50.092;15.804;2023-06-14T11:47:22;99079.78;;;21.28;49.59
70027;BME280;57506;50.092;15.804;2023-06-14T11:49:48;99074.66;;;21.37;49.40
70027;BME280;57506;50.092;15.804;2023-06-14T11:52:14;99074.38;;;22.26;48.16
70027;BME280;57506;50.092;15.804;2023-06-14T11:54:40;99071.94;;;22.34;46.17
70027;BME280;57506;50.092;15.804;2023-06-14T11:57:09;99078.78;;;22.22;47.05
70027;BME280;57506;50.092;15.804;2023-06-14T11:59:39;99070.53;;;22.12;46.85
70027;BME280;57506;50.092;15.804;2023-06-14T12:02:06;99060.09;;;22.14;46.73
70027;BME280;57506;50.092;15.804;2023-06-14T12:04:32;99065.63;;;22.34;46.89
70027;BME280;57506;50.092;15.804;2023-06-14T12:07:11;99057.09;;;22.15;45.57
70027;BME280;57506;50.092;15.804;2023-06-14T12:12:20;99051.88;;;22.95;46.80
70027;BME280;57506;50.092;15.804;2023-06-14T12:14:47;99052.69;;;23.00;43.51
70027;BME280;57506;50.092;15.804;2023-06-14T12:17:12;99056.75;;;23.28;44.35
70027;BME280;57506;50.092;15.804;2023-06-14T12:19:45;99055.19;;;22.87;44.22
70027;BME280;57506;50.092;15.804;2023-06-14T12:22:12;99055.97;;;22.11;45.84
70027;BME280;57506;50.092;15.804;2023-06-14T12:24:38;99058.34;;;21.72;45.99
70027;BME280;57506;50.092;15.804;2023-06-14T12:27:05;99061.88;;;21.57;46.05
70027;BME280;57506;50.092;15.804;2023-06-14T12:29:31;99068.78;;;21.75;45.89
70027;BME280;57506;50.092;15.804;2023-06-14T12:31:57;99068.59;;;22.02;45.51
70027;BME280;57506;50.092;15.804;2023-06-14T12:34:26;99078.66;;;21.81;42.82
70027;BME280;57506;50.092;15.804;2023-06-14T12:36:55;99070.00;;;22.15;43.96
70027;BME280;57506;50.092;15.804;2023-06-14T12:39:21;99074.97;;;22.33;44.62
70027;BME280;57506;50.092;15.804;2023-06-14T12:41:47;99069.22;;;22.40;45.62
70027;BME280;57506;50.092;15.804;2023-06-14T12:44:14;99068.38;;;22.34;44.85
70027;BME280;57506;50.092;15.804;2023-06-14T12:46:42;99061.22;;;22.08;46.60
70027;BME280;57506;50.092;15.804;2023-06-14T12:49:10;99065.31;;;22.05;45.55
70027;BME280;57506;50.092;15.804;2023-06-14T12:51:37;99058.47;;;22.33;45.00
70027;BME280;57506;50.092;15.804;2023-06-14T12:54:03;99068.38;;;22.39;44.81
70027;BME280;57506;50.092;15.804;2023-06-14T12:56:28;99053.25;;;22.42;44.55
70027;BME280;57506;50.092;15.804;2023-06-14T12:58:54;99058.75;;;22.67;43.89
70027;BME280;57506;50.092;15.804;2023-06-14T13:01:20;99052.97;;;22.63;42.53
70027;BME280;57506;50.092;15.804;2023-06-14T13:03:49;99047.47;;;22.94;42.95
70027;BME280;57506;50.092;15.804;2023-06-14T13:06:17;99049.97;;;22.65;43.41
70027;BME280;57506;50.092;15.804;2023-06-14T13:08:42;99045.56;;;22.49;43.43
70027;BME280;57506;50.092;15.804;2023-06-14T13:11:08;99052.63;;;21.89;44.65
70027;BME280;57506;50.092;15.804;2023-06-14T13:13:34;99049.94;;;22.09;44.99